sensor_id;sensor_type;location;lat;lon;timestamp;temperature;humidity
21811;DHT22;11067;48.788;9.208;2023-11-21T00:00:13;8.70;99.90
21811;DHT22;11067;48.788;9.208;2023-11-21T00:02:39;8.70;99.90
21811;DHT22;11067;48.788;9.208;2023-11-21T00:05:10;8.70;99.90
21811;DHT22;11067;48.788;9.208;2023-11-21T00:07:37;8.70;99.90
21811;DHT22;11067;48.788;9.208;2023-11-21T00:10:03;8.80;99.90
21811;DHT22;11067;48.788;9.208;2023-11-21T00:12:33;8.70;99.90
21811;DHT22;11067;48.788;9.208;2023-11-21T00:14:59;8.70;99.90
21811;DHT22;11067;48.788;9.208;2023-11-21T00:17:25;8.60;99.90
21811;DHT22;11067;48.788;9.208;2023-11-21T00:19:50;8.50;99.90
21811;DHT22;11067;48.788;9.208;2023-11-21T00:22:19;8.50;99.90
21811;DHT22;11067;48.788;9.208;2023-11-21T00:24:45;8.60;99.90
21811;DHT22;11067;48.788;9.208;2023-11-21T00:27:11;8.60;99.90
21811;DHT22;11067;48.788;9.208;2023-11-21T00:29:37;8.50;99.90
21811;DHT22;11067;48.788;9.208;2023-11-21T00:32:04;8.60;99.90
21811;DHT22;11067;48.788;9.208;2023-11-21T00:34:31;8.60;99.90
21811;DHT22;11067;48.788;9.208;2023-11-21T00:36:56;8.70;99.90
21811;DHT22;11067;48.788;9.208;2023-11-21T00:39:22;8.70;99.90
21811;DHT22;11067;48.788;9.208;2023-11-21T00:41:47;8.70;99.90
21811;DHT22;11067;48.788;9.208;2023-11-21T00:44:14;8.70;99.90
21811;DHT22;11067;48.788;9.208;2023-11-21T00:46:39;8.70;99.90
21811;DHT22;11067;48.788;9.208;2023-11-21T00:49:05;8.70;99.90
21811;DHT22;11067;48.788;9.208;2023-11-21T00:51:30;8.80;99.90
21811;DHT22;11067;48.788;9.208;2023-11-21T00:53:56;8.80;99.90
21811;DHT22;11067;48.788;9.208;2023-11-21T00:56:22;8.80;99.90
21811;DHT22;11067;48.788;9.208;2023-11-21T00:58:47;8.90;99.90
21811;DHT22;11067;48.788;9.208;2023-11-21T01:01:18;8.90;99.90
21811;DHT22;11067;48.788;9.208;2023-11-21T01:03:43;9.00;99.90
21811;DHT22;11067;48.788;9.208;2023-11-21T01:06:11;9.00;99.90
21811;DHT22;11067;48.788;9.208;2023-11-21T01:08:36;9.00;99.90
21811;DHT22;11067;48.788;9.208;2023-11-21T01:11:02;9.00;99.90
21811;DHT22;11067;48.788;9.208;2023-11-21T01:13:27;9.00;99.90
21811;DHT22;11067;48.788;9.208;2023-11-21T01:15:53;9.10;99.90
21811;DHT22;11067;48.788;9.208;2023-11-21T01:18:19;9.10;99.90
21811;DHT22;11067;48.788;9.208;2023-11-21T01:20:45;9.10;99.90
21811;DHT22;11067;48.788;9.208;2023-11-21T01:23:12;9.00;99.90
21811;DHT22;11067;48.788;9.208;2023-11-21T01:25:38;9.10;99.90
21811;DHT22;11067;48.788;9.208;2023-11-21T01:28:03;9.00;99.90
21811;DHT22;11067;48.788;9.208;2023-11-21T01:30:30;9.00;99.90
21811;DHT22;11067;48.788;9.208;2023-11-21T01:32:58;9.00;99.90
21811;DHT22;11067;48.788;9.208;2023-11-21T01:35:23;9.00;99.90
21811;DHT22;11067;48.788;9.208;2023-11-21T01:37:49;9.00;99.90
21811;DHT22;11067;48.788;9.208;2023-11-21T01:40:14;8.90;99.90
21811;DHT22;11067;48.788;9.208;2023-11-21T01:42:41;9.00;99.90
21811;DHT22;11067;48.788;9.208;2023-11-21T01:45:09;8.90;99.90
21811;DHT22;11067;48.788;9.208;2023-11-21T01:47:35;8.90;99.90
21811;DHT22;11067;48.788;9.208;2023-11-21T01:50:02;9.00;99.90
21811;DHT22;11067;48.788;9.208;2023-11-21T01:52:30;9.00;99.90
21811;DHT22;11067;48.788;9.208;2023-11-21T01:54:55;9.00;99.90
21811;DHT22;11067;48.788;9.208;2023-11-21T01:57:21;9.00;99.90
21811;DHT22;11067;48.788;9.208;2023-11-21T01:59:48;9.00;99.90
21811;DHT22;11067;48.788;9.208;2023-11-21T02:02:15;9.10;99.90
21811;DHT22;11067;48.788;9.208;2023-11-21T02:04:41;9.00;99.90
21811;DHT22;11067;48.788;9.208;2023-11-21T02:07:06;9.00;99.90
21811;DHT22;11067;48.788;9.208;2023-11-21T02:09:32;9.00;99.90
21811;DHT22;11067;48.788;9.208;2023-11-21T02:12:03;9.00;99.90
21811;DHT22;11067;48.788;9.208;2023-11-21T02:14:30;9.00;99.90
21811;DHT22;11067;48.788;9.208;2023-11-21T02:16:56;9.00;99.90
21811;DHT22;11067;48.788;9.208;2023-11-21T02:19:26;9.00;99.90
21811;DHT22;11067;48.788;9.208;2023-11-21T02:21:53;9.00;99.90
21811;DHT22;11067;48.788;9.208;2023-11-21T02:24:19;9.00;99.90
21811;DHT22;11067;48.788;9.208;2023-11-21T02:26:45;9.00;99.90
21811;DHT22;11067;48.788;9.208;2023-11-21T02:29:11;9.00;99.90
21811;DHT22;11067;48.788;9.208;2023-11-21T02:31:38;9.00;99.90
21811;DHT22;11067;48.788;9.208;2023-11-21T02:34:16;8.90;99.90
21811;DHT22;11067;48.788;9.208;2023-11-21T02:36:42;9.00;99.90
21811;DHT22;11067;48.788;9.208;2023-11-21T02:39:09;8.90;99.90
21811;DHT22;11067;48.788;9.208;2023-11-21T02:41:34;9.00;99.90
21811;DHT22;11067;48.788;9.208;2023-11-21T02:44:00;9.00;99.90
21811;DHT22;11067;48.788;9.208;2023-11-21T02:46:26;9.00;99.90
21811;DHT22;11067;48.788;9.208;2023-11-21T02:48:52;9.00;99.90
21811;DHT22;11067;48.788;9.208;2023-11-21T02:51:20;9.10;99.90
21811;DHT22;11067;48.788;9.208;2023-11-21T02:53:46;9.00;99.90
21811;DHT22;11067;48.788;9.208;2023-11-21T02:56:12;9.00;99.90
21811;DHT22;11067;48.788;9.208;2023-11-21T02:58:40;9.00;99.90
21811;DHT22;11067;48.788;9.208;2023-11-21T03:01:06;9.00;99.90
21811;DHT22;11067;48.788;9.208;2023-11-21T03:03:33;8.90;99.90
21811;DHT22;11067;48.788;9.208;2023-11-21T03:05:58;8.90;99.90
21811;DHT22;11067;48.788;9.208;2023-11-21T03:08:24;8.90;99.90
21811;DHT22;11067;48.788;9.208;2023-11-21T03:10:49;8.90;99.90
21811;DHT22;11067;48.788;9.208;2023-11-21T03:13:15;8.90;99.90
21811;DHT22;11067;48.788;9.208;2023-11-21T03:15:40;8.80;99.90
21811;DHT22;11067;48.788;9.208;2023-11-21T03:18:08;8.80;99.90
21811;DHT22;11067;48.788;9.208;2023-11-21T03:20:33;8.80;99.90
21811;DHT22;11067;48.788;9.208;2023-11-21T03:23:00;8.70;99.90
21811;DHT22;11067;48.788;9.208;2023-11-21T03:25:25;8.70;99.90
21811;DHT22;11067;48.788;9.208;2023-11-21T03:27:51;8.70;99.90
21811;DHT22;11067;48.788;9.208;2023-11-21T03:30:17;8.80;99.90
21811;DHT22;11067;48.788;9.208;2023-11-21T03:32:42;8.80;99.90
21811;DHT22;11067;48.788;9.208;2023-11-21T03:35:08;8.80;99.90
21811;DHT22;11067;48.788;9.208;2023-11-21T03:37:34;8.80;99.90
21811;DHT22;11067;48.788;9.208;2023-11-21T03:39:59;8.80;99.90
21811;DHT22;11067;48.788;9.208;2023-11-21T03:42:25;8.90;99.90
21811;DHT22;11067;48.788;9.208;2023-11-21T03:44:53;8.80;99.90
21811;DHT22;11067;48.788;9.208;2023-11-21T03:47:19;8.80;99.90
21811;DHT22;11067;48.788;9.208;2023-11-21T03:49:45;8.80;99.90
21811;DHT22;11067;48.788;9.208;2023-11-21T03:52:11;8.80;99.90
21811;DHT22;11067;48.788;9.208;2023-11-21T03:54:37;8.80;99.90
21811;DHT22;11067;48.788;9.208;2023-11-21T03:57:03;8.70;99.90
21811;DHT22;11067;48.788;9.208;2023-11-21T03:59:28;8.80;99.90
21811;DHT22;11067;48.788;9.208;2023-11-21T04:01:56;8.80;99.90
21811;DHT22;11067;48.788;9.208;2023-11-21T04:04:22;8.80;99.90
21811;DHT22;11067;48.788;9.208;2023-11-21T04:06:48;8.80;99.90
21811;DHT22;11067;48.788;9.208;2023-11-21T04:09:13;8.80;99.90
21811;DHT22;11067;48.788;9.208;2023-11-21T04:11:39;8.70;99.90
21811;DHT22;11067;48.788;9.208;2023-11-21T04:14:06;8.80;99.90
21811;DHT22;11067;48.788;9.208;2023-11-21T04:16:32;8.80;99.90
21811;DHT22;11067;48.788;9.208;2023-11-21T04:18:57;8.70;99.90
21811;DHT22;11067;48.788;9.208;2023-11-21T04:21:23;8.60;99.90
21811;DHT22;11067;48.788;9.208;2023-11-21T04:23:49;8.70;99.90
21811;DHT22;11067;48.788;9.208;2023-11-21T04:26:15;8.60;99.90
21811;DHT22;11067;48.788;9.208;2023-11-21T04:28:40;8.60;99.90
21811;DHT22;11067;48.788;9.208;2023-11-21T04:31:06;8.60;99.90
21811;DHT22;11067;48.788;9.208;2023-11-21T04:33:32;8.50;99.90
21811;DHT22;11067;48.788;9.208;2023-11-21T04:35:58;8.50;99.90
21811;DHT22;11067;48.788;9.208;2023-11-21T04:38:23;8.50;99.90
21811;DHT22;11067;48.788;9.208;2023-11-21T04:40:49;8.50;99.90
21811;DHT22;11067;48.788;9.208;2023-11-21T04:43:14;8.40;99.90
21811;DHT22;11067;48.788;9.208;2023-11-21T04:45:40;8.40;99.90
21811;DHT22;11067;48.788;9.208;2023-11-21T04:48:07;8.40;99.90
21811;DHT22;11067;48.788;9.208;2023-11-21T04:50:33;8.30;99.90
21811;DHT22;11067;48.788;9.208;2023-11-21T04:52:59;8.20;99.90
21811;DHT22;11067;48.788;9.208;2023-11-21T04:55:25;8.30;99.90
21811;DHT22;11067;48.788;9.208;2023-11-21T04:57:53;8.30;99.90
21811;DHT22;11067;48.788;9.208;2023-11-21T05:00:19;8.30;99.90
21811;DHT22;11067;48.788;9.208;2023-11-21T05:02:55;8.30;99.90
21811;DHT22;11067;48.788;9.208;2023-11-21T05:05:21;8.30;99.90
21811;DHT22;11067;48.788;9.208;2023-11-21T05:07:46;8.20;99.90
21811;DHT22;11067;48.788;9.208;2023-11-21T05:10:14;8.20;99.90
21811;DHT22;11067;48.788;9.208;2023-11-21T05:12:41;8.20;99.90
21811;DHT22;11067;48.788;9.208;2023-11-21T05:15:07;8.20;99.90
21811;DHT22;11067;48.788;9.208;2023-11-21T05:17:37;8.30;99.90
21811;DHT22;11067;48.788;9.208;2023-11-21T05:20:04;8.40;99.90
21811;DHT22;11067;48.788;9.208;2023-11-21T05:22:34;8.40;99.90
21811;DHT22;11067;48.788;9.208;2023-11-21T05:24:59;8.40;99.90
21811;DHT22;11067;48.788;9.208;2023-11-21T05:27:25;8.40;99.90
21811;DHT22;11067;48.788;9.208;2023-11-21T05:29:51;8.40;99.90
21811;DHT22;11067;48.788;9.208;2023-11-21T05:32:16;8.40;99.90
21811;DHT22;11067;48.788;9.208;2023-11-21T05:34:43;8.40;99.90
21811;DHT22;11067;48.788;9.208;2023-11-21T05:37:08;8.50;99.90
21811;DHT22;11067;48.788;9.208;2023-11-21T05:39:34;8.50;99.90
21811;DHT22;11067;48.788;9.208;2023-11-21T05:42:01;8.50;99.90
21811;DHT22;11067;48.788;9.208;2023-11-21T05:44:26;8.50;99.90
21811;DHT22;11067;48.788;9.208;2023-11-21T05:46:52;8.50;99.90
21811;DHT22;11067;48.788;9.208;2023-11-21T05:49:18;8.50;99.90
21811;DHT22;11067;48.788;9.208;2023-11-21T05:51:47;8.60;99.90
21811;DHT22;11067;48.788;9.208;2023-11-21T05:54:12;8.60;99.90
21811;DHT22;11067;48.788;9.208;2023-11-21T05:56:38;8.60;99.90
21811;DHT22;11067;48.788;9.208;2023-11-21T05:59:03;8.60;99.90
21811;DHT22;11067;48.788;9.208;2023-11-21T06:01:29;8.60;99.90
21811;DHT22;11067;48.788;9.208;2023-11-21T06:03:55;8.50;99.90
21811;DHT22;11067;48.788;9.208;2023-11-21T06:06:21;8.50;99.90
21811;DHT22;11067;48.788;9.208;2023-11-21T06:08:48;8.50;99.90
21811;DHT22;11067;48.788;9.208;2023-11-21T06:11:14;8.50;99.90
21811;DHT22;11067;48.788;9.208;2023-11-21T06:13:41;8.50;99.90
21811;DHT22;11067;48.788;9.208;2023-11-21T06:16:07;8.50;99.90
21811;DHT22;11067;48.788;9.208;2023-11-21T06:18:33;8.50;99.90
21811;DHT22;11067;48.788;9.208;2023-11-21T06:20:58;8.50;99.90
21811;DHT22;11067;48.788;9.208;2023-11-21T06:23:26;8.50;99.90
21811;DHT22;11067;48.788;9.208;2023-11-21T06:25:51;8.60;99.90
21811;DHT22;11067;48.788;9.208;2023-11-21T06:28:17;8.50;99.90
21811;DHT22;11067;48.788;9.208;2023-11-21T06:30:43;8.60;99.90
21811;DHT22;11067;48.788;9.208;2023-11-21T06:33:10;8.60;99.90
21811;DHT22;11067;48.788;9.208;2023-11-21T06:35:36;8.60;99.90
21811;DHT22;11067;48.788;9.208;2023-11-21T06:38:02;8.60;99.90
21811;DHT22;11067;48.788;9.208;2023-11-21T06:40:28;8.70;99.90
21811;DHT22;11067;48.788;9.208;2023-11-21T06:42:53;8.80;99.90
21811;DHT22;11067;48.788;9.208;2023-11-21T06:45:19;8.70;99.90
21811;DHT22;11067;48.788;9.208;2023-11-21T06:47:45;8.70;99.90
21811;DHT22;11067;48.788;9.208;2023-11-21T06:50:11;8.80;99.90
21811;DHT22;11067;48.788;9.208;2023-11-21T06:52:36;8.80;99.90
21811;DHT22;11067;48.788;9.208;2023-11-21T06:55:02;8.80;99.90
21811;DHT22;11067;48.788;9.208;2023-11-21T06:57:28;8.80;99.90
21811;DHT22;11067;48.788;9.208;2023-11-21T06:59:54;8.70;99.90
21811;DHT22;11067;48.788;9.208;2023-11-21T07:02:21;8.80;99.90
21811;DHT22;11067;48.788;9.208;2023-11-21T07:04:46;8.80;99.90
21811;DHT22;11067;48.788;9.208;2023-11-21T07:07:12;8.80;99.90
21811;DHT22;11067;48.788;9.208;2023-11-21T07:09:38;8.80;99.90
21811;DHT22;11067;48.788;9.208;2023-11-21T07:12:04;8.90;99.90
21811;DHT22;11067;48.788;9.208;2023-11-21T07:14:35;8.80;99.90
21811;DHT22;11067;48.788;9.208;2023-11-21T07:17:01;8.80;99.90
21811;DHT22;11067;48.788;9.208;2023-11-21T07:19:26;8.90;99.90
21811;DHT22;11067;48.788;9.208;2023-11-21T07:21:52;8.90;99.90
21811;DHT22;11067;48.788;9.208;2023-11-21T07:24:18;8.80;99.90
21811;DHT22;11067;48.788;9.208;2023-11-21T07:26:44;8.90;99.90
21811;DHT22;11067;48.788;9.208;2023-11-21T07:29:09;8.80;99.90
21811;DHT22;11067;48.788;9.208;2023-11-21T07:31:37;8.90;99.90
21811;DHT22;11067;48.788;9.208;2023-11-21T07:34:03;8.90;99.90
21811;DHT22;11067;48.788;9.208;2023-11-21T07:36:29;8.90;99.90
21811;DHT22;11067;48.788;9.208;2023-11-21T07:38:54;9.00;99.90
21811;DHT22;11067;48.788;9.208;2023-11-21T07:41:20;9.00;99.90
21811;DHT22;11067;48.788;9.208;2023-11-21T07:43:46;9.00;99.90
21811;DHT22;11067;48.788;9.208;2023-11-21T07:46:12;9.10;99.90
21811;DHT22;11067;48.788;9.208;2023-11-21T07:48:38;9.00;99.90
21811;DHT22;11067;48.788;9.208;2023-11-21T07:51:05;9.10;99.90
21811;DHT22;11067;48.788;9.208;2023-11-21T07:53:31;9.10;99.90
21811;DHT22;11067;48.788;9.208;2023-11-21T07:55:57;9.10;99.90
21811;DHT22;11067;48.788;9.208;2023-11-21T07:58:23;9.10;99.90
21811;DHT22;11067;48.788;9.208;2023-11-21T08:00:49;9.10;99.90
21811;DHT22;11067;48.788;9.208;2023-11-21T08:03:15;9.20;99.90
21811;DHT22;11067;48.788;9.208;2023-11-21T08:05:41;9.20;99.90
21811;DHT22;11067;48.788;9.208;2023-11-21T08:08:07;9.10;99.90
21811;DHT22;11067;48.788;9.208;2023-11-21T08:10:33;9.10;99.90
21811;DHT22;11067;48.788;9.208;2023-11-21T08:12:58;9.20;99.90
21811;DHT22;11067;48.788;9.208;2023-11-21T08:15:24;9.20;99.90
21811;DHT22;11067;48.788;9.208;2023-11-21T08:17:50;9.20;99.90
21811;DHT22;11067;48.788;9.208;2023-11-21T08:20:16;9.20;99.90
21811;DHT22;11067;48.788;9.208;2023-11-21T08:22:44;9.30;99.90
21811;DHT22;11067;48.788;9.208;2023-11-21T08:25:10;9.20;99.90
21811;DHT22;11067;48.788;9.208;2023-11-21T08:27:36;9.20;99.90
21811;DHT22;11067;48.788;9.208;2023-11-21T08:30:05;9.20;99.90
21811;DHT22;11067;48.788;9.208;2023-11-21T08:32:31;9.30;99.90
21811;DHT22;11067;48.788;9.208;2023-11-21T08:34:58;9.30;99.90
21811;DHT22;11067;48.788;9.208;2023-11-21T08:37:24;9.30;99.90
21811;DHT22;11067;48.788;9.208;2023-11-21T08:39:52;9.40;99.90
21811;DHT22;11067;48.788;9.208;2023-11-21T08:42:21;9.50;99.90
21811;DHT22;11067;48.788;9.208;2023-11-21T08:44:48;9.50;99.90
21811;DHT22;11067;48.788;9.208;2023-11-21T08:47:13;9.50;99.90
21811;DHT22;11067;48.788;9.208;2023-11-21T08:49:39;9.50;99.90
21811;DHT22;11067;48.788;9.208;2023-11-21T08:52:05;9.60;99.90
21811;DHT22;11067;48.788;9.208;2023-11-21T08:54:32;9.60;99.90
21811;DHT22;11067;48.788;9.208;2023-11-21T08:56:57;9.70;99.90
21811;DHT22;11067;48.788;9.208;2023-11-21T08:59:26;9.60;99.90
21811;DHT22;11067;48.788;9.208;2023-11-21T09:01:51;9.70;99.90
21811;DHT22;11067;48.788;9.208;2023-11-21T09:04:17;9.60;99.90
21811;DHT22;11067;48.788;9.208;2023-11-21T09:06:43;9.60;99.90
21811;DHT22;11067;48.788;9.208;2023-11-21T09:09:08;9.80;99.90
21811;DHT22;11067;48.788;9.208;2023-11-21T09:11:36;9.80;99.90
21811;DHT22;11067;48.788;9.208;2023-11-21T09:14:02;9.90;99.90
21811;DHT22;11067;48.788;9.208;2023-11-21T09:16:29;10.00;99.90
21811;DHT22;11067;48.788;9.208;2023-11-21T09:18:54;10.10;99.90
21811;DHT22;11067;48.788;9.208;2023-11-21T09:21:20;10.00;99.90
21811;DHT22;11067;48.788;9.208;2023-11-21T09:23:46;10.10;99.90
21811;DHT22;11067;48.788;9.208;2023-11-21T09:26:11;10.10;99.90
21811;DHT22;11067;48.788;9.208;2023-11-21T09:28:37;10.20;99.90
21811;DHT22;11067;48.788;9.208;2023-11-21T09:31:04;10.30;99.90
21811;DHT22;11067;48.788;9.208;2023-11-21T09:33:30;10.30;99.90
21811;DHT22;11067;48.788;9.208;2023-11-21T09:35:56;10.20;99.90
21811;DHT22;11067;48.788;9.208;2023-11-21T09:38:22;10.40;99.90
21811;DHT22;11067;48.788;9.208;2023-11-21T09:40:48;10.40;99.90
21811;DHT22;11067;48.788;9.208;2023-11-21T09:43:18;10.60;99.90
21811;DHT22;11067;48.788;9.208;2023-11-21T09:45:48;10.40;99.90
21811;DHT22;11067;48.788;9.208;2023-11-21T09:48:17;10.40;99.90
21811;DHT22;11067;48.788;9.208;2023-11-21T09:50:43;10.50;99.90
21811;DHT22;11067;48.788;9.208;2023-11-21T09:53:22;10.60;99.90
21811;DHT22;11067;48.788;9.208;2023-11-21T09:55:51;10.60;99.90
21811;DHT22;11067;48.788;9.208;2023-11-21T09:58:18;10.50;99.90
21811;DHT22;11067;48.788;9.208;2023-11-21T10:00:45;10.40;99.90
21811;DHT22;11067;48.788;9.208;2023-11-21T10:03:12;10.20;99.90
21811;DHT22;11067;48.788;9.208;2023-11-21T10:05:38;10.20;99.90
21811;DHT22;11067;48.788;9.208;2023-11-21T10:08:07;10.20;99.90
21811;DHT22;11067;48.788;9.208;2023-11-21T10:10:33;10.00;99.90
21811;DHT22;11067;48.788;9.208;2023-11-21T10:13:05;10.00;99.90
21811;DHT22;11067;48.788;9.208;2023-11-21T10:15:34;10.10;99.90
21811;DHT22;11067;48.788;9.208;2023-11-21T10:18:04;10.30;99.90
21811;DHT22;11067;48.788;9.208;2023-11-21T10:20:32;10.10;99.90
21811;DHT22;11067;48.788;9.208;2023-11-21T10:22:59;9.90;99.90
21811;DHT22;11067;48.788;9.208;2023-11-21T10:25:27;9.90;99.90
21811;DHT22;11067;48.788;9.208;2023-11-21T10:27:58;9.90;99.90
21811;DHT22;11067;48.788;9.208;2023-11-21T10:30:36;9.70;99.90
21811;DHT22;11067;48.788;9.208;2023-11-21T10:33:06;9.70;99.90
21811;DHT22;11067;48.788;9.208;2023-11-21T10:35:59;9.80;99.90
21811;DHT22;11067;48.788;9.208;2023-11-21T10:38:26;9.60;99.90
21811;DHT22;11067;48.788;9.208;2023-11-21T10:40:54;9.70;99.90
21811;DHT22;11067;48.788;9.208;2023-11-21T10:43:20;9.70;99.90
21811;DHT22;11067;48.788;9.208;2023-11-21T10:45:49;9.70;99.90
21811;DHT22;11067;48.788;9.208;2023-11-21T10:48:15;9.90;99.90
21811;DHT22;11067;48.788;9.208;2023-11-21T10:50:43;9.80;99.90
21811;DHT22;11067;48.788;9.208;2023-11-21T10:53:09;9.90;99.90
21811;DHT22;11067;48.788;9.208;2023-11-21T10:55:37;9.90;99.90
21811;DHT22;11067;48.788;9.208;2023-11-21T10:58:03;9.90;99.90
21811;DHT22;11067;48.788;9.208;2023-11-21T11:00:33;10.00;99.90
21811;DHT22;11067;48.788;9.208;2023-11-21T11:02:59;9.80;99.90
21811;DHT22;11067;48.788;9.208;2023-11-21T11:05:27;9.90;99.90
21811;DHT22;11067;48.788;9.208;2023-11-21T11:08:04;10.00;99.90
21811;DHT22;11067;48.788;9.208;2023-11-21T11:10:30;10.20;99.90
21811;DHT22;11067;48.788;9.208;2023-11-21T11:12:57;10.40;99.90
21811;DHT22;11067;48.788;9.208;2023-11-21T11:15:26;10.60;99.90
21811;DHT22;11067;48.788;9.208;2023-11-21T11:17:53;10.70;99.90
21811;DHT22;11067;48.788;9.208;2023-11-21T11:20:27;10.50;99.90
21811;DHT22;11067;48.788;9.208;2023-11-21T11:28:54;10.50;99.90
21811;DHT22;11067;48.788;9.208;2023-11-21T11:31:53;10.60;99.90
21811;DHT22;11067;48.788;9.208;2023-11-21T11:34:35;10.50;99.90
21811;DHT22;11067;48.788;9.208;2023-11-21T11:37:04;10.60;99.90
21811;DHT22;11067;48.788;9.208;2023-11-21T11:39:41;10.50;99.90
21811;DHT22;11067;48.788;9.208;2023-11-21T11:42:17;10.80;99.90
21811;DHT22;11067;48.788;9.208;2023-11-21T11:47:15;10.50;99.90
21811;DHT22;11067;48.788;9.208;2023-11-21T11:55:00;10.80;99.90
21811;DHT22;11067;48.788;9.208;2023-11-21T11:57:26;10.80;99.90
21811;DHT22;11067;48.788;9.208;2023-11-21T12:02:35;10.60;99.90
21811;DHT22;11067;48.788;9.208;2023-11-21T12:05:08;10.70;99.90
21811;DHT22;11067;48.788;9.208;2023-11-21T12:07:53;10.70;99.90
21811;DHT22;11067;48.788;9.208;2023-11-21T12:10:26;10.70;99.90
21811;DHT22;11067;48.788;9.208;2023-11-21T12:12:58;10.80;99.90
21811;DHT22;11067;48.788;9.208;2023-11-21T12:15:24;10.70;99.90
21811;DHT22;11067;48.788;9.208;2023-11-21T12:17:51;10.60;99.90
21811;DHT22;11067;48.788;9.208;2023-11-21T12:20:21;10.50;99.90
21811;DHT22;11067;48.788;9.208;2023-11-21T12:22:49;10.40;99.90
21811;DHT22;11067;48.788;9.208;2023-11-21T12:25:35;10.10;99.90
21811;DHT22;11067;48.788;9.208;2023-11-21T12:28:02;10.40;99.90
21811;DHT22;11067;48.788;9.208;2023-11-21T12:30:33;10.50;99.90
21811;DHT22;11067;48.788;9.208;2023-11-21T12:33:01;10.50;99.90
21811;DHT22;11067;48.788;9.208;2023-11-21T12:35:30;10.40;99.90
21811;DHT22;11067;48.788;9.208;2023-11-21T12:37:56;10.40;99.90
21811;DHT22;11067;48.788;9.208;2023-11-21T12:40:26;10.40;99.90
21811;DHT22;11067;48.788;9.208;2023-11-21T12:42:53;10.30;99.90
21811;DHT22;11067;48.788;9.208;2023-11-21T12:45:20;10.20;99.90
21811;DHT22;11067;48.788;9.208;2023-11-21T12:47:48;10.20;99.90
21811;DHT22;11067;48.788;9.208;2023-11-21T12:50:15;10.20;99.90
21811;DHT22;11067;48.788;9.208;2023-11-21T12:52:45;10.40;99.90
21811;DHT22;11067;48.788;9.208;2023-11-21T12:55:15;10.30;99.90
21811;DHT22;11067;48.788;9.208;2023-11-21T12:57:42;10.50;99.90
21811;DHT22;11067;48.788;9.208;2023-11-21T13:00:09;10.40;99.90
21811;DHT22;11067;48.788;9.208;2023-11-21T13:02:40;10.30;99.90
21811;DHT22;11067;48.788;9.208;2023-11-21T13:05:08;10.30;99.90
21811;DHT22;11067;48.788;9.208;2023-11-21T13:07:44;10.40;99.90
21811;DHT22;11067;48.788;9.208;2023-11-21T13:10:12;10.20;99.90
21811;DHT22;11067;48.788;9.208;2023-11-21T13:12:43;10.20;99.90
21811;DHT22;11067;48.788;9.208;2023-11-21T13:15:14;10.20;99.90
21811;DHT22;11067;48.788;9.208;2023-11-21T13:17:42;10.20;99.90
21811;DHT22;11067;48.788;9.208;2023-11-21T13:20:10;10.30;99.90
21811;DHT22;11067;48.788;9.208;2023-11-21T13:22:48;10.30;99.90
21811;DHT22;11067;48.788;9.208;2023-11-21T13:25:17;10.20;99.90
21811;DHT22;11067;48.788;9.208;2023-11-21T13:27:45;10.10;99.90
21811;DHT22;11067;48.788;9.208;2023-11-21T13:30:15;10.20;99.90
21811;DHT22;11067;48.788;9.208;2023-11-21T13:32:44;9.90;99.90
21811;DHT22;11067;48.788;9.208;2023-11-21T13:35:15;9.50;99.90
21811;DHT22;11067;48.788;9.208;2023-11-21T13:37:48;9.40;99.90
21811;DHT22;11067;48.788;9.208;2023-11-21T13:40:15;9.30;99.90
21811;DHT22;11067;48.788;9.208;2023-11-21T13:42:45;9.40;99.90
21811;DHT22;11067;48.788;9.208;2023-11-21T13:45:11;9.30;99.90
21811;DHT22;11067;48.788;9.208;2023-11-21T13:47:38;9.30;99.90
21811;DHT22;11067;48.788;9.208;2023-11-21T13:50:05;9.30;99.90
21811;DHT22;11067;48.788;9.208;2023-11-21T13:52:39;9.40;99.90
21811;DHT22;11067;48.788;9.208;2023-11-21T13:55:05;9.40;99.90
21811;DHT22;11067;48.788;9.208;2023-11-21T13:57:33;9.50;99.90
21811;DHT22;11067;48.788;9.208;2023-11-21T13:59:59;9.50;99.90
21811;DHT22;11067;48.788;9.208;2023-11-21T14:02:26;9.40;99.90
21811;DHT22;11067;48.788;9.208;2023-11-21T14:04:59;9.50;99.90
21811;DHT22;11067;48.788;9.208;2023-11-21T14:07:30;9.40;99.90
21811;DHT22;11067;48.788;9.208;2023-11-21T14:10:01;9.40;99.90
21811;DHT22;11067;48.788;9.208;2023-11-21T14:12:27;9.40;99.90
21811;DHT22;11067;48.788;9.208;2023-11-21T14:14:53;9.40;99.90
21811;DHT22;11067;48.788;9.208;2023-11-21T14:17:20;9.50;99.90
21811;DHT22;11067;48.788;9.208;2023-11-21T14:19:49;9.50;99.90
21811;DHT22;11067;48.788;9.208;2023-11-21T14:22:14;9.40;99.90
21811;DHT22;11067;48.788;9.208;2023-11-21T14:24:40;9.50;99.90
21811;DHT22;11067;48.788;9.208;2023-11-21T14:27:13;9.40;99.90
21811;DHT22;11067;48.788;9.208;2023-11-21T14:29:38;9.40;99.90
21811;DHT22;11067;48.788;9.208;2023-11-21T14:32:08;9.50;99.90
21811;DHT22;11067;48.788;9.208;2023-11-21T14:34:34;9.50;99.90
21811;DHT22;11067;48.788;9.208;2023-11-21T14:37:00;9.50;99.90
21811;DHT22;11067;48.788;9.208;2023-11-21T14:39:28;9.40;99.90
21811;DHT22;11067;48.788;9.208;2023-11-21T14:41:54;9.50;99.90
21811;DHT22;11067;48.788;9.208;2023-11-21T14:44:24;9.40;99.90
21811;DHT22;11067;48.788;9.208;2023-11-21T14:46:53;9.40;99.90
21811;DHT22;11067;48.788;9.208;2023-11-21T14:49:20;9.40;99.90
21811;DHT22;11067;48.788;9.208;2023-11-21T14:51:48;9.40;99.90
21811;DHT22;11067;48.788;9.208;2023-11-21T14:54:32;9.40;99.90
21811;DHT22;11067;48.788;9.208;2023-11-21T14:57:11;9.40;99.90
21811;DHT22;11067;48.788;9.208;2023-11-21T14:59:44;9.50;99.90
21811;DHT22;11067;48.788;9.208;2023-11-21T15:02:12;9.40;99.90
21811;DHT22;11067;48.788;9.208;2023-11-21T15:04:43;9.40;99.90
21811;DHT22;11067;48.788;9.208;2023-11-21T15:07:09;9.30;99.90
21811;DHT22;11067;48.788;9.208;2023-11-21T15:09:36;9.30;99.90
21811;DHT22;11067;48.788;9.208;2023-11-21T15:12:08;9.40;99.90
21811;DHT22;11067;48.788;9.208;2023-11-21T15:14:48;9.40;99.90
21811;DHT22;11067;48.788;9.208;2023-11-21T15:17:17;9.40;99.90
21811;DHT22;11067;48.788;9.208;2023-11-21T15:19:53;9.40;99.90
21811;DHT22;11067;48.788;9.208;2023-11-21T15:22:19;9.40;99.90
21811;DHT22;11067;48.788;9.208;2023-11-21T15:24:45;9.40;99.90
21811;DHT22;11067;48.788;9.208;2023-11-21T15:27:13;9.40;99.90
21811;DHT22;11067;48.788;9.208;2023-11-21T15:29:39;9.40;99.90
21811;DHT22;11067;48.788;9.208;2023-11-21T15:32:06;9.30;99.90
21811;DHT22;11067;48.788;9.208;2023-11-21T15:34:36;9.40;99.90
21811;DHT22;11067;48.788;9.208;2023-11-21T15:37:02;9.40;99.90
21811;DHT22;11067;48.788;9.208;2023-11-21T15:39:29;9.40;99.90
21811;DHT22;11067;48.788;9.208;2023-11-21T15:41:56;9.40;99.90
21811;DHT22;11067;48.788;9.208;2023-11-21T15:44:22;9.40;99.90
21811;DHT22;11067;48.788;9.208;2023-11-21T15:46:50;9.40;99.90
21811;DHT22;11067;48.788;9.208;2023-11-21T15:49:16;9.30;99.90
21811;DHT22;11067;48.788;9.208;2023-11-21T15:51:45;9.30;99.90
21811;DHT22;11067;48.788;9.208;2023-11-21T15:54:23;9.20;99.90
21811;DHT22;11067;48.788;9.208;2023-11-21T15:56:50;9.10;99.90
21811;DHT22;11067;48.788;9.208;2023-11-21T15:59:17;9.20;99.90